sensor_id;sensor_type;location;lat;lon;timestamp;P1;durP1;ratioP1;P2;durP2;ratioP2
9222;SDS011;7557;51.698;3.942;2024-01-25T00:02:04;286.40;;;273.90;;
9222;SDS011;7557;51.698;3.942;2024-01-25T00:04:32;351.50;;;332.33;;
9222;SDS011;7557;51.698;3.942;2024-01-25T00:06:59;301.73;;;288.83;;
9222;SDS011;7557;51.698;3.942;2024-01-25T00:09:27;345.03;;;328.67;;
9222;SDS011;7557;51.698;3.942;2024-01-25T00:11:56;232.63;;;222.47;;
9222;SDS011;7557;51.698;3.942;2024-01-25T00:14:23;289.23;;;276.47;;
9222;SDS011;7557;51.698;3.942;2024-01-25T00:16:51;311.17;;;296.70;;
9222;SDS011;7557;51.698;3.942;2024-01-25T00:19:18;332.70;;;317.83;;
9222;SDS011;7557;51.698;3.942;2024-01-25T00:21:44;334.63;;;318.57;;
9222;SDS011;7557;51.698;3.942;2024-01-25T00:24:12;303.53;;;289.90;;
9222;SDS011;7557;51.698;3.942;2024-01-25T00:26:40;354.70;;;338.30;;
9222;SDS011;7557;51.698;3.942;2024-01-25T00:29:09;388.17;;;368.63;;
9222;SDS011;7557;51.698;3.942;2024-01-25T00:31:36;342.93;;;327.43;;
9222;SDS011;7557;51.698;3.942;2024-01-25T00:34:04;297.27;;;282.47;;
9222;SDS011;7557;51.698;3.942;2024-01-25T00:36:32;245.33;;;235.13;;
9222;SDS011;7557;51.698;3.942;2024-01-25T00:39:00;217.67;;;208.50;;
9222;SDS011;7557;51.698;3.942;2024-01-25T00:41:28;298.63;;;285.30;;
9222;SDS011;7557;51.698;3.942;2024-01-25T00:43:59;355.07;;;332.33;;
9222;SDS011;7557;51.698;3.942;2024-01-25T00:46:29;306.93;;;292.33;;
9222;SDS011;7557;51.698;3.942;2024-01-25T00:48:57;360.13;;;343.13;;
9222;SDS011;7557;51.698;3.942;2024-01-25T00:51:25;325.97;;;311.47;;
9222;SDS011;7557;51.698;3.942;2024-01-25T00:53:53;295.90;;;282.70;;
9222;SDS011;7557;51.698;3.942;2024-01-25T00:56:21;449.60;;;426.13;;
9222;SDS011;7557;51.698;3.942;2024-01-25T00:58:49;388.57;;;371.33;;
9222;SDS011;7557;51.698;3.942;2024-01-25T01:01:17;302.60;;;289.60;;
9222;SDS011;7557;51.698;3.942;2024-01-25T01:03:48;328.00;;;313.57;;
9222;SDS011;7557;51.698;3.942;2024-01-25T01:06:18;279.77;;;267.20;;
9222;SDS011;7557;51.698;3.942;2024-01-25T01:08:46;261.00;;;250.03;;
9222;SDS011;7557;51.698;3.942;2024-01-25T01:11:14;282.47;;;270.00;;
9222;SDS011;7557;51.698;3.942;2024-01-25T01:13:42;336.00;;;320.43;;
9222;SDS011;7557;51.698;3.942;2024-01-25T01:16:10;302.40;;;288.73;;
9222;SDS011;7557;51.698;3.942;2024-01-25T01:18:37;302.83;;;290.20;;
9222;SDS011;7557;51.698;3.942;2024-01-25T01:21:06;335.37;;;321.37;;
9222;SDS011;7557;51.698;3.942;2024-01-25T01:23:34;292.87;;;280.53;;
9222;SDS011;7557;51.698;3.942;2024-01-25T01:26:01;276.17;;;263.90;;
9222;SDS011;7557;51.698;3.942;2024-01-25T01:28:30;272.93;;;261.60;;
9222;SDS011;7557;51.698;3.942;2024-01-25T01:30:58;280.03;;;268.00;;
9222;SDS011;7557;51.698;3.942;2024-01-25T01:33:25;267.77;;;255.27;;
9222;SDS011;7557;51.698;3.942;2024-01-25T01:35:53;342.73;;;327.07;;
9222;SDS011;7557;51.698;3.942;2024-01-25T01:38:22;329.83;;;315.20;;
9222;SDS011;7557;51.698;3.942;2024-01-25T01:40:49;290.77;;;277.67;;
9222;SDS011;7557;51.698;3.942;2024-01-25T01:43:20;337.10;;;322.13;;
9222;SDS011;7557;51.698;3.942;2024-01-25T01:45:48;338.87;;;323.87;;
9222;SDS011;7557;51.698;3.942;2024-01-25T01:48:17;278.03;;;266.57;;
9222;SDS011;7557;51.698;3.942;2024-01-25T01:50:44;270.63;;;259.17;;
9222;SDS011;7557;51.698;3.942;2024-01-25T01:53:15;288.27;;;276.37;;
9222;SDS011;7557;51.698;3.942;2024-01-25T01:55:45;243.33;;;232.93;;
9222;SDS011;7557;51.698;3.942;2024-01-25T01:58:13;245.93;;;234.83;;
9222;SDS011;7557;51.698;3.942;2024-01-25T02:00:40;249.43;;;239.03;;
9222;SDS011;7557;51.698;3.942;2024-01-25T02:03:09;225.73;;;215.73;;
9222;SDS011;7557;51.698;3.942;2024-01-25T02:05:36;242.83;;;231.77;;
9222;SDS011;7557;51.698;3.942;2024-01-25T02:08:04;268.93;;;257.73;;
9222;SDS011;7557;51.698;3.942;2024-01-25T02:10:32;252.53;;;241.47;;
9222;SDS011;7557;51.698;3.942;2024-01-25T02:13:16;258.37;;;247.03;;
9222;SDS011;7557;51.698;3.942;2024-01-25T02:15:43;257.33;;;245.77;;
9222;SDS011;7557;51.698;3.942;2024-01-25T02:18:10;246.57;;;235.60;;
9222;SDS011;7557;51.698;3.942;2024-01-25T02:20:38;258.97;;;247.67;;
9222;SDS011;7557;51.698;3.942;2024-01-25T02:23:07;242.90;;;232.33;;
9222;SDS011;7557;51.698;3.942;2024-01-25T02:25:34;238.70;;;227.93;;
9222;SDS011;7557;51.698;3.942;2024-01-25T02:28:01;231.33;;;221.10;;
9222;SDS011;7557;51.698;3.942;2024-01-25T02:30:29;257.53;;;246.90;;
9222;SDS011;7557;51.698;3.942;2024-01-25T02:32:56;230.87;;;220.20;;
9222;SDS011;7557;51.698;3.942;2024-01-25T02:35:24;208.33;;;198.50;;
9222;SDS011;7557;51.698;3.942;2024-01-25T02:37:52;236.67;;;226.03;;
9222;SDS011;7557;51.698;3.942;2024-01-25T02:40:20;222.70;;;212.93;;
9222;SDS011;7557;51.698;3.942;2024-01-25T02:42:48;235.43;;;224.50;;
9222;SDS011;7557;51.698;3.942;2024-01-25T02:45:15;220.47;;;210.90;;
9222;SDS011;7557;51.698;3.942;2024-01-25T02:47:42;223.07;;;213.43;;
9222;SDS011;7557;51.698;3.942;2024-01-25T02:50:10;226.53;;;216.77;;
9222;SDS011;7557;51.698;3.942;2024-01-25T02:52:37;231.37;;;221.57;;
9222;SDS011;7557;51.698;3.942;2024-01-25T02:55:05;222.93;;;213.70;;
9222;SDS011;7557;51.698;3.942;2024-01-25T02:57:34;230.93;;;221.13;;
9222;SDS011;7557;51.698;3.942;2024-01-25T03:00:02;229.03;;;218.80;;
9222;SDS011;7557;51.698;3.942;2024-01-25T03:02:30;243.40;;;232.03;;
9222;SDS011;7557;51.698;3.942;2024-01-25T03:04:58;229.70;;;218.50;;
9222;SDS011;7557;51.698;3.942;2024-01-25T03:07:25;225.40;;;214.57;;
9222;SDS011;7557;51.698;3.942;2024-01-25T03:09:52;226.37;;;216.63;;
9222;SDS011;7557;51.698;3.942;2024-01-25T03:12:19;228.77;;;217.57;;
9222;SDS011;7557;51.698;3.942;2024-01-25T03:14:49;230.60;;;219.33;;
9222;SDS011;7557;51.698;3.942;2024-01-25T03:17:16;234.20;;;223.37;;
9222;SDS011;7557;51.698;3.942;2024-01-25T03:19:43;249.30;;;238.70;;
9222;SDS011;7557;51.698;3.942;2024-01-25T03:22:12;220.90;;;210.83;;
9222;SDS011;7557;51.698;3.942;2024-01-25T03:24:40;223.23;;;213.63;;
9222;SDS011;7557;51.698;3.942;2024-01-25T03:27:07;216.03;;;206.33;;
9222;SDS011;7557;51.698;3.942;2024-01-25T03:29:40;233.63;;;222.97;;
9222;SDS011;7557;51.698;3.942;2024-01-25T03:32:10;213.07;;;203.33;;
9222;SDS011;7557;51.698;3.942;2024-01-25T03:34:37;222.53;;;211.37;;
9222;SDS011;7557;51.698;3.942;2024-01-25T03:37:05;216.60;;;206.70;;
9222;SDS011;7557;51.698;3.942;2024-01-25T03:39:32;200.33;;;190.70;;
9222;SDS011;7557;51.698;3.942;2024-01-25T03:41:59;211.90;;;201.83;;
9222;SDS011;7557;51.698;3.942;2024-01-25T03:44:26;193.87;;;184.00;;
9222;SDS011;7557;51.698;3.942;2024-01-25T03:46:54;201.83;;;192.47;;
9222;SDS011;7557;51.698;3.942;2024-01-25T03:49:23;201.37;;;191.23;;
9222;SDS011;7557;51.698;3.942;2024-01-25T03:51:50;192.70;;;182.77;;
9222;SDS011;7557;51.698;3.942;2024-01-25T03:54:17;196.80;;;187.57;;
9222;SDS011;7557;51.698;3.942;2024-01-25T03:56:45;191.53;;;182.23;;
9222;SDS011;7557;51.698;3.942;2024-01-25T03:59:12;218.17;;;208.13;;
9222;SDS011;7557;51.698;3.942;2024-01-25T04:01:43;203.77;;;193.60;;
9222;SDS011;7557;51.698;3.942;2024-01-25T04:04:12;205.70;;;196.30;;
9222;SDS011;7557;51.698;3.942;2024-01-25T04:06:42;193.70;;;185.07;;
9222;SDS011;7557;51.698;3.942;2024-01-25T04:09:11;213.33;;;202.77;;
9222;SDS011;7557;51.698;3.942;2024-01-25T04:11:40;199.70;;;190.03;;
9222;SDS011;7557;51.698;3.942;2024-01-25T04:14:07;187.70;;;179.17;;
9222;SDS011;7557;51.698;3.942;2024-01-25T04:16:35;192.67;;;183.93;;
9222;SDS011;7557;51.698;3.942;2024-01-25T04:19:02;204.33;;;194.40;;
9222;SDS011;7557;51.698;3.942;2024-01-25T04:21:30;189.93;;;180.97;;
9222;SDS011;7557;51.698;3.942;2024-01-25T04:23:58;205.27;;;196.30;;
9222;SDS011;7557;51.698;3.942;2024-01-25T04:26:26;207.00;;;197.93;;
9222;SDS011;7557;51.698;3.942;2024-01-25T04:28:53;199.83;;;191.03;;
9222;SDS011;7557;51.698;3.942;2024-01-25T04:31:21;173.20;;;164.80;;
9222;SDS011;7557;51.698;3.942;2024-01-25T04:33:48;183.63;;;174.13;;
9222;SDS011;7557;51.698;3.942;2024-01-25T04:36:16;190.73;;;181.77;;
9222;SDS011;7557;51.698;3.942;2024-01-25T04:38:43;194.70;;;185.33;;
9222;SDS011;7557;51.698;3.942;2024-01-25T04:41:13;193.57;;;185.33;;
9222;SDS011;7557;51.698;3.942;2024-01-25T04:43:41;190.07;;;181.60;;
9222;SDS011;7557;51.698;3.942;2024-01-25T04:46:09;186.50;;;176.83;;
9222;SDS011;7557;51.698;3.942;2024-01-25T04:48:36;192.00;;;183.33;;
9222;SDS011;7557;51.698;3.942;2024-01-25T04:51:04;196.60;;;187.77;;
9222;SDS011;7557;51.698;3.942;2024-01-25T04:53:32;212.30;;;202.87;;
9222;SDS011;7557;51.698;3.942;2024-01-25T04:55:59;191.17;;;181.90;;
9222;SDS011;7557;51.698;3.942;2024-01-25T04:58:28;183.70;;;174.37;;
9222;SDS011;7557;51.698;3.942;2024-01-25T05:00:55;736.63;;;690.92;;
9222;SDS011;7557;51.698;3.942;2024-01-25T05:03:23;258.20;;;246.57;;
9222;SDS011;7557;51.698;3.942;2024-01-25T05:05:50;214.93;;;206.00;;
9222;SDS011;7557;51.698;3.942;2024-01-25T05:08:18;200.60;;;191.07;;
9222;SDS011;7557;51.698;3.942;2024-01-25T05:10:45;188.53;;;179.73;;
9222;SDS011;7557;51.698;3.942;2024-01-25T05:13:13;190.27;;;181.30;;
9222;SDS011;7557;51.698;3.942;2024-01-25T05:15:42;174.30;;;166.20;;
9222;SDS011;7557;51.698;3.942;2024-01-25T05:18:09;183.20;;;174.47;;
9222;SDS011;7557;51.698;3.942;2024-01-25T05:20:36;182.33;;;174.43;;
9222;SDS011;7557;51.698;3.942;2024-01-25T05:23:04;170.47;;;161.90;;
9222;SDS011;7557;51.698;3.942;2024-01-25T05:25:32;171.03;;;162.70;;
9222;SDS011;7557;51.698;3.942;2024-01-25T05:27:59;171.00;;;162.07;;
9222;SDS011;7557;51.698;3.942;2024-01-25T05:30:27;163.17;;;156.20;;
9222;SDS011;7557;51.698;3.942;2024-01-25T05:32:56;167.80;;;160.07;;
9222;SDS011;7557;51.698;3.942;2024-01-25T05:35:23;179.90;;;170.60;;
9222;SDS011;7557;51.698;3.942;2024-01-25T05:37:51;176.90;;;167.67;;
9222;SDS011;7557;51.698;3.942;2024-01-25T05:40:18;165.77;;;157.07;;
9222;SDS011;7557;51.698;3.942;2024-01-25T05:42:50;153.87;;;146.00;;
9222;SDS011;7557;51.698;3.942;2024-01-25T05:45:17;156.13;;;147.97;;
9222;SDS011;7557;51.698;3.942;2024-01-25T05:47:46;160.23;;;152.07;;
9222;SDS011;7557;51.698;3.942;2024-01-25T05:50:17;158.43;;;149.63;;
9222;SDS011;7557;51.698;3.942;2024-01-25T05:52:44;172.23;;;163.87;;
9222;SDS011;7557;51.698;3.942;2024-01-25T05:55:12;164.47;;;156.13;;
9222;SDS011;7557;51.698;3.942;2024-01-25T05:57:42;180.70;;;171.27;;
9222;SDS011;7557;51.698;3.942;2024-01-25T06:00:11;168.03;;;159.63;;
9222;SDS011;7557;51.698;3.942;2024-01-25T06:02:40;177.07;;;167.33;;
9222;SDS011;7557;51.698;3.942;2024-01-25T06:05:08;169.07;;;160.93;;
9222;SDS011;7557;51.698;3.942;2024-01-25T06:07:37;180.73;;;171.90;;
9222;SDS011;7557;51.698;3.942;2024-01-25T06:10:05;176.87;;;167.80;;
9222;SDS011;7557;51.698;3.942;2024-01-25T06:12:34;169.13;;;161.07;;
9222;SDS011;7557;51.698;3.942;2024-01-25T06:15:01;174.77;;;165.87;;
9222;SDS011;7557;51.698;3.942;2024-01-25T06:17:30;163.73;;;155.40;;
9222;SDS011;7557;51.698;3.942;2024-01-25T06:19:57;191.50;;;181.30;;
9222;SDS011;7557;51.698;3.942;2024-01-25T06:22:25;187.67;;;178.33;;
9222;SDS011;7557;51.698;3.942;2024-01-25T06:24:55;183.13;;;174.83;;
9222;SDS011;7557;51.698;3.942;2024-01-25T06:27:22;175.23;;;166.67;;
9222;SDS011;7557;51.698;3.942;2024-01-25T06:29:50;188.00;;;179.03;;
9222;SDS011;7557;51.698;3.942;2024-01-25T06:32:17;186.10;;;177.07;;
9222;SDS011;7557;51.698;3.942;2024-01-25T06:34:44;194.97;;;186.23;;
9222;SDS011;7557;51.698;3.942;2024-01-25T06:37:11;184.30;;;175.17;;
9222;SDS011;7557;51.698;3.942;2024-01-25T06:39:40;192.63;;;183.33;;
9222;SDS011;7557;51.698;3.942;2024-01-25T06:42:09;181.43;;;171.67;;
9222;SDS011;7557;51.698;3.942;2024-01-25T06:44:37;185.40;;;175.67;;
9222;SDS011;7557;51.698;3.942;2024-01-25T06:47:04;185.70;;;177.17;;
9222;SDS011;7557;51.698;3.942;2024-01-25T06:49:32;159.93;;;151.73;;
9222;SDS011;7557;51.698;3.942;2024-01-25T06:51:59;171.57;;;162.20;;
9222;SDS011;7557;51.698;3.942;2024-01-25T06:54:27;186.40;;;176.27;;
9222;SDS011;7557;51.698;3.942;2024-01-25T06:56:54;173.50;;;164.40;;
9222;SDS011;7557;51.698;3.942;2024-01-25T06:59:23;184.67;;;175.33;;
9222;SDS011;7557;51.698;3.942;2024-01-25T07:01:51;176.93;;;168.50;;
9222;SDS011;7557;51.698;3.942;2024-01-25T07:04:18;171.87;;;163.13;;
9222;SDS011;7557;51.698;3.942;2024-01-25T07:06:45;166.67;;;158.27;;
9222;SDS011;7557;51.698;3.942;2024-01-25T07:09:14;188.03;;;179.13;;
9222;SDS011;7557;51.698;3.942;2024-01-25T07:11:42;167.60;;;159.53;;
9222;SDS011;7557;51.698;3.942;2024-01-25T07:14:09;155.10;;;145.00;;
9222;SDS011;7557;51.698;3.942;2024-01-25T07:16:38;159.03;;;151.47;;
9222;SDS011;7557;51.698;3.942;2024-01-25T07:19:09;166.13;;;157.23;;
9222;SDS011;7557;51.698;3.942;2024-01-25T07:21:37;150.50;;;142.50;;
9222;SDS011;7557;51.698;3.942;2024-01-25T07:24:05;186.33;;;177.30;;
9222;SDS011;7557;51.698;3.942;2024-01-25T07:26:34;198.43;;;189.40;;
9222;SDS011;7557;51.698;3.942;2024-01-25T07:29:02;190.80;;;181.77;;
9222;SDS011;7557;51.698;3.942;2024-01-25T07:31:29;224.90;;;213.53;;
9222;SDS011;7557;51.698;3.942;2024-01-25T07:33:58;184.50;;;175.83;;
9222;SDS011;7557;51.698;3.942;2024-01-25T07:36:26;170.83;;;161.87;;
9222;SDS011;7557;51.698;3.942;2024-01-25T07:38:54;179.27;;;170.33;;
9222;SDS011;7557;51.698;3.942;2024-01-25T07:41:22;169.87;;;160.77;;
9222;SDS011;7557;51.698;3.942;2024-01-25T07:43:49;164.80;;;156.67;;
9222;SDS011;7557;51.698;3.942;2024-01-25T07:46:20;180.27;;;170.83;;
9222;SDS011;7557;51.698;3.942;2024-01-25T07:48:49;174.93;;;166.17;;
9222;SDS011;7557;51.698;3.942;2024-01-25T07:51:18;167.80;;;159.00;;
9222;SDS011;7557;51.698;3.942;2024-01-25T07:53:45;175.33;;;167.33;;
9222;SDS011;7557;51.698;3.942;2024-01-25T07:56:13;169.67;;;161.00;;
9222;SDS011;7557;51.698;3.942;2024-01-25T07:58:40;227.87;;;217.67;;
9222;SDS011;7557;51.698;3.942;2024-01-25T08:01:08;201.00;;;190.70;;
9222;SDS011;7557;51.698;3.942;2024-01-25T08:03:35;207.37;;;197.07;;
9222;SDS011;7557;51.698;3.942;2024-01-25T08:06:03;213.03;;;203.40;;
9222;SDS011;7557;51.698;3.942;2024-01-25T08:08:32;199.30;;;189.93;;
9222;SDS011;7557;51.698;3.942;2024-01-25T08:10:59;195.07;;;185.20;;
9222;SDS011;7557;51.698;3.942;2024-01-25T08:13:27;166.53;;;157.77;;
9222;SDS011;7557;51.698;3.942;2024-01-25T08:15:55;196.90;;;187.27;;
9222;SDS011;7557;51.698;3.942;2024-01-25T08:18:22;152.00;;;142.73;;
9222;SDS011;7557;51.698;3.942;2024-01-25T08:20:50;163.70;;;155.37;;
9222;SDS011;7557;51.698;3.942;2024-01-25T08:23:17;217.30;;;207.60;;
9222;SDS011;7557;51.698;3.942;2024-01-25T08:25:46;167.67;;;159.20;;
9222;SDS011;7557;51.698;3.942;2024-01-25T08:28:14;219.17;;;209.17;;
9222;SDS011;7557;51.698;3.942;2024-01-25T08:30:42;191.30;;;183.17;;
9222;SDS011;7557;51.698;3.942;2024-01-25T08:33:09;185.97;;;176.77;;
9222;SDS011;7557;51.698;3.942;2024-01-25T08:35:37;202.07;;;192.37;;
9222;SDS011;7557;51.698;3.942;2024-01-25T08:38:06;170.30;;;161.83;;
9222;SDS011;7557;51.698;3.942;2024-01-25T08:40:34;190.37;;;179.70;;
9222;SDS011;7557;51.698;3.942;2024-01-25T08:43:03;181.03;;;171.57;;
9222;SDS011;7557;51.698;3.942;2024-01-25T08:45:31;172.63;;;163.50;;
9222;SDS011;7557;51.698;3.942;2024-01-25T08:47:58;165.97;;;156.97;;
9222;SDS011;7557;51.698;3.942;2024-01-25T08:50:26;174.30;;;165.27;;
9222;SDS011;7557;51.698;3.942;2024-01-25T08:52:53;178.20;;;168.80;;
9222;SDS011;7557;51.698;3.942;2024-01-25T08:55:22;156.90;;;148.83;;
9222;SDS011;7557;51.698;3.942;2024-01-25T08:57:50;210.37;;;199.07;;
9222;SDS011;7557;51.698;3.942;2024-01-25T09:00:19;218.60;;;207.23;;
9222;SDS011;7557;51.698;3.942;2024-01-25T09:02:46;233.20;;;221.30;;
9222;SDS011;7557;51.698;3.942;2024-01-25T09:05:14;281.43;;;266.67;;
9222;SDS011;7557;51.698;3.942;2024-01-25T09:07:42;213.50;;;202.70;;
9222;SDS011;7557;51.698;3.942;2024-01-25T09:10:09;367.67;;;349.70;;
9222;SDS011;7557;51.698;3.942;2024-01-25T09:12:38;348.13;;;331.27;;
9222;SDS011;7557;51.698;3.942;2024-01-25T09:15:06;330.90;;;313.57;;
9222;SDS011;7557;51.698;3.942;2024-01-25T09:17:36;361.60;;;343.67;;
9222;SDS011;7557;51.698;3.942;2024-01-25T09:20:06;324.37;;;307.60;;
9222;SDS011;7557;51.698;3.942;2024-01-25T09:22:34;353.90;;;336.73;;
9222;SDS011;7557;51.698;3.942;2024-01-25T09:25:02;343.03;;;325.80;;
9222;SDS011;7557;51.698;3.942;2024-01-25T09:27:30;405.00;;;384.73;;
9222;SDS011;7557;51.698;3.942;2024-01-25T09:29:57;433.33;;;412.13;;
9222;SDS011;7557;51.698;3.942;2024-01-25T09:32:25;477.07;;;453.33;;
9222;SDS011;7557;51.698;3.942;2024-01-25T09:34:54;456.40;;;433.70;;
9222;SDS011;7557;51.698;3.942;2024-01-25T09:37:22;390.80;;;372.00;;
9222;SDS011;7557;51.698;3.942;2024-01-25T09:39:50;449.37;;;425.40;;
9222;SDS011;7557;51.698;3.942;2024-01-25T09:42:17;505.97;;;480.97;;
9222;SDS011;7557;51.698;3.942;2024-01-25T09:44:45;523.07;;;497.63;;
9222;SDS011;7557;51.698;3.942;2024-01-25T09:47:14;587.67;;;558.60;;
9222;SDS011;7557;51.698;3.942;2024-01-25T09:49:41;519.27;;;493.07;;
9222;SDS011;7557;51.698;3.942;2024-01-25T09:52:13;529.83;;;503.40;;
9222;SDS011;7557;51.698;3.942;2024-01-25T09:54:42;538.20;;;510.40;;
9222;SDS011;7557;51.698;3.942;2024-01-25T09:57:12;562.77;;;535.07;;
9222;SDS011;7557;51.698;3.942;2024-01-25T10:00:00;488.97;;;463.73;;
9222;SDS011;7557;51.698;3.942;2024-01-25T10:02:27;565.77;;;536.93;;
9222;SDS011;7557;51.698;3.942;2024-01-25T10:04:55;480.47;;;455.30;;
9222;SDS011;7557;51.698;3.942;2024-01-25T10:07:36;556.47;;;527.33;;
9222;SDS011;7557;51.698;3.942;2024-01-25T10:10:10;424.33;;;403.20;;
9222;SDS011;7557;51.698;3.942;2024-01-25T10:12:40;494.13;;;468.43;;
9222;SDS011;7557;51.698;3.942;2024-01-25T10:15:08;406.33;;;387.00;;
9222;SDS011;7557;51.698;3.942;2024-01-25T10:17:36;545.47;;;518.00;;
9222;SDS011;7557;51.698;3.942;2024-01-25T10:20:05;455.47;;;431.90;;
9222;SDS011;7557;51.698;3.942;2024-01-25T10:22:38;466.10;;;443.00;;
9222;SDS011;7557;51.698;3.942;2024-01-25T10:25:11;400.80;;;379.87;;
9222;SDS011;7557;51.698;3.942;2024-01-25T10:27:40;496.60;;;471.03;;
9222;SDS011;7557;51.698;3.942;2024-01-25T10:30:08;478.60;;;453.97;;
9222;SDS011;7557;51.698;3.942;2024-01-25T10:32:40;442.10;;;419.03;;
9222;SDS011;7557;51.698;3.942;2024-01-25T10:35:08;472.23;;;448.80;;
9222;SDS011;7557;51.698;3.942;2024-01-25T10:37:39;425.50;;;404.77;;
9222;SDS011;7557;51.698;3.942;2024-01-25T10:40:09;426.93;;;405.63;;
9222;SDS011;7557;51.698;3.942;2024-01-25T10:42:37;480.50;;;457.00;;
9222;SDS011;7557;51.698;3.942;2024-01-25T10:45:05;450.03;;;427.97;;
9222;SDS011;7557;51.698;3.942;2024-01-25T10:47:34;425.33;;;404.70;;
9222;SDS011;7557;51.698;3.942;2024-01-25T10:50:03;481.03;;;456.37;;
9222;SDS011;7557;51.698;3.942;2024-01-25T10:52:34;466.70;;;442.20;;
9222;SDS011;7557;51.698;3.942;2024-01-25T10:55:04;426.00;;;403.70;;
9222;SDS011;7557;51.698;3.942;2024-01-25T10:57:36;383.63;;;364.17;;
9222;SDS011;7557;51.698;3.942;2024-01-25T11:00:06;353.60;;;335.20;;
9222;SDS011;7557;51.698;3.942;2024-01-25T11:02:37;388.23;;;368.67;;
9222;SDS011;7557;51.698;3.942;2024-01-25T11:05:06;371.50;;;353.07;;
9222;SDS011;7557;51.698;3.942;2024-01-25T11:07:43;386.87;;;367.03;;
9222;SDS011;7557;51.698;3.942;2024-01-25T11:10:15;369.77;;;350.43;;
9222;SDS011;7557;51.698;3.942;2024-01-25T11:12:48;341.83;;;325.37;;
9222;SDS011;7557;51.698;3.942;2024-01-25T11:15:22;241.53;;;228.17;;
9222;SDS011;7557;51.698;3.942;2024-01-25T11:17:56;200.90;;;191.23;;
9222;SDS011;7557;51.698;3.942;2024-01-25T11:20:24;363.93;;;345.17;;
9222;SDS011;7557;51.698;3.942;2024-01-25T11:22:56;324.43;;;309.17;;
9222;SDS011;7557;51.698;3.942;2024-01-25T11:25:28;291.03;;;276.03;;
9222;SDS011;7557;51.698;3.942;2024-01-25T11:27:56;296.57;;;281.23;;
9222;SDS011;7557;51.698;3.942;2024-01-25T11:30:24;269.00;;;255.53;;
9222;SDS011;7557;51.698;3.942;2024-01-25T11:32:53;268.30;;;254.33;;
9222;SDS011;7557;51.698;3.942;2024-01-25T11:35:21;280.87;;;266.57;;
9222;SDS011;7557;51.698;3.942;2024-01-25T11:37:49;268.43;;;253.90;;
9222;SDS011;7557;51.698;3.942;2024-01-25T11:40:17;343.70;;;327.17;;
9222;SDS011;7557;51.698;3.942;2024-01-25T11:42:47;321.63;;;303.53;;
9222;SDS011;7557;51.698;3.942;2024-01-25T11:45:17;341.73;;;325.10;;
9222;SDS011;7557;51.698;3.942;2024-01-25T11:47:44;369.43;;;351.53;;
9222;SDS011;7557;51.698;3.942;2024-01-25T11:50:12;279.10;;;265.20;;
9222;SDS011;7557;51.698;3.942;2024-01-25T11:52:39;271.20;;;256.73;;
9222;SDS011;7557;51.698;3.942;2024-01-25T11:55:07;279.63;;;265.53;;
9222;SDS011;7557;51.698;3.942;2024-01-25T11:57:37;315.73;;;300.87;;
9222;SDS011;7557;51.698;3.942;2024-01-25T12:00:09;317.83;;;301.90;;
9222;SDS011;7557;51.698;3.942;2024-01-25T12:02:40;258.90;;;246.10;;
9222;SDS011;7557;51.698;3.942;2024-01-25T12:05:08;355.80;;;338.73;;
9222;SDS011;7557;51.698;3.942;2024-01-25T12:07:50;353.40;;;335.97;;
9222;SDS011;7557;51.698;3.942;2024-01-25T12:10:17;348.70;;;331.53;;
9222;SDS011;7557;51.698;3.942;2024-01-25T12:12:45;289.20;;;274.83;;
9222;SDS011;7557;51.698;3.942;2024-01-25T12:15:16;352.43;;;334.83;;
9222;SDS011;7557;51.698;3.942;2024-01-25T12:17:44;384.97;;;365.77;;
9222;SDS011;7557;51.698;3.942;2024-01-25T12:20:11;373.60;;;354.20;;
9222;SDS011;7557;51.698;3.942;2024-01-25T12:22:39;379.37;;;359.10;;
9222;SDS011;7557;51.698;3.942;2024-01-25T12:25:07;413.57;;;393.47;;
9222;SDS011;7557;51.698;3.942;2024-01-25T12:27:38;435.73;;;413.93;;
9222;SDS011;7557;51.698;3.942;2024-01-25T12:30:08;500.30;;;474.30;;
9222;SDS011;7557;51.698;3.942;2024-01-25T12:32:38;456.33;;;432.50;;
9222;SDS011;7557;51.698;3.942;2024-01-25T12:35:06;521.43;;;496.03;;
9222;SDS011;7557;51.698;3.942;2024-01-25T12:37:34;564.17;;;534.77;;
9222;SDS011;7557;51.698;3.942;2024-01-25T12:40:01;583.20;;;553.13;;
9222;SDS011;7557;51.698;3.942;2024-01-25T12:42:29;525.40;;;499.60;;
9222;SDS011;7557;51.698;3.942;2024-01-25T12:44:56;534.43;;;506.20;;
9222;SDS011;7557;51.698;3.942;2024-01-25T12:47:24;512.20;;;485.07;;
9222;SDS011;7557;51.698;3.942;2024-01-25T12:49:53;618.63;;;587.17;;
9222;SDS011;7557;51.698;3.942;2024-01-25T12:52:20;519.27;;;492.60;;
9222;SDS011;7557;51.698;3.942;2024-01-25T12:54:48;481.50;;;457.10;;
9222;SDS011;7557;51.698;3.942;2024-01-25T12:57:16;542.20;;;513.83;;
9222;SDS011;7557;51.698;3.942;2024-01-25T12:59:43;549.80;;;521.27;;
9222;SDS011;7557;51.698;3.942;2024-01-25T13:02:12;528.60;;;501.97;;
9222;SDS011;7557;51.698;3.942;2024-01-25T13:04:40;578.83;;;548.70;;
9222;SDS011;7557;51.698;3.942;2024-01-25T13:07:09;548.97;;;519.70;;
9222;SDS011;7557;51.698;3.942;2024-01-25T13:09:36;605.90;;;573.63;;
9222;SDS011;7557;51.698;3.942;2024-01-25T13:12:04;604.37;;;573.43;;
9222;SDS011;7557;51.698;3.942;2024-01-25T13:14:31;566.93;;;537.87;;
9222;SDS011;7557;51.698;3.942;2024-01-25T13:16:59;548.37;;;521.50;;
9222;SDS011;7557;51.698;3.942;2024-01-25T13:19:27;562.33;;;533.70;;
9222;SDS011;7557;51.698;3.942;2024-01-25T13:21:54;644.37;;;610.90;;
9222;SDS011;7557;51.698;3.942;2024-01-25T13:24:23;449.23;;;428.30;;
9222;SDS011;7557;51.698;3.942;2024-01-25T13:26:54;564.70;;;535.57;;
9222;SDS011;7557;51.698;3.942;2024-01-25T13:29:25;657.63;;;623.43;;
9222;SDS011;7557;51.698;3.942;2024-01-25T13:31:54;637.30;;;604.93;;
9222;SDS011;7557;51.698;3.942;2024-01-25T13:34:22;668.63;;;633.50;;
9222;SDS011;7557;51.698;3.942;2024-01-25T13:36:49;661.70;;;624.30;;
9222;SDS011;7557;51.698;3.942;2024-01-25T13:39:17;615.53;;;582.70;;
9222;SDS011;7557;51.698;3.942;2024-01-25T13:41:46;672.70;;;637.00;;
9222;SDS011;7557;51.698;3.942;2024-01-25T13:44:15;711.80;;;672.73;;
9222;SDS011;7557;51.698;3.942;2024-01-25T13:46:42;634.60;;;601.50;;
9222;SDS011;7557;51.698;3.942;2024-01-25T13:49:10;628.70;;;596.17;;
9222;SDS011;7557;51.698;3.942;2024-01-25T13:51:38;639.13;;;606.23;;
9222;SDS011;7557;51.698;3.942;2024-01-25T13:54:05;583.57;;;552.00;;
9222;SDS011;7557;51.698;3.942;2024-01-25T13:56:32;658.53;;;623.63;;
9222;SDS011;7557;51.698;3.942;2024-01-25T13:59:01;551.97;;;522.57;;
9222;SDS011;7557;51.698;3.942;2024-01-25T14:01:29;505.50;;;479.30;;
9222;SDS011;7557;51.698;3.942;2024-01-25T14:03:56;524.43;;;496.47;;
9222;SDS011;7557;51.698;3.942;2024-01-25T14:06:24;580.07;;;549.63;;
9222;SDS011;7557;51.698;3.942;2024-01-25T14:08:51;598.10;;;567.03;;
9222;SDS011;7557;51.698;3.942;2024-01-25T14:11:19;624.30;;;591.60;;
9222;SDS011;7557;51.698;3.942;2024-01-25T14:13:47;629.77;;;596.00;;
9222;SDS011;7557;51.698;3.942;2024-01-25T14:16:16;585.20;;;555.50;;
9222;SDS011;7557;51.698;3.942;2024-01-25T14:18:43;623.27;;;591.77;;
9222;SDS011;7557;51.698;3.942;2024-01-25T14:21:11;553.73;;;526.27;;
9222;SDS011;7557;51.698;3.942;2024-01-25T14:23:39;589.37;;;558.10;;
9222;SDS011;7557;51.698;3.942;2024-01-25T14:26:06;667.60;;;632.03;;
9222;SDS011;7557;51.698;3.942;2024-01-25T14:28:33;644.00;;;609.97;;